American Glory — WDA8860 — position and weather

sailwx.info

Track history (hours):
 
Tides and Currents Weather Stations Pressure Air Temp Water Temp Dewpoint Dewpoint Depression Visibility Wind Speed Wind Dir Waves Ship Positions

American Glory

Owner: AMERICAN CRUISE LINES INC, DELMAR, DE. More information available from US FCC via Universal Licensing System and Coast Guard Vessel Documentation Center.

Last reported at 2016-Sep-30 20:33 UTC. Time now 2016-Sep-30 22:03 UTC.
Position N 40°43' W 073°59'.

Length 54 m; draft 2.1 m.

Type: Ship. MMSI: 366858820.

Date/timePositionNaut miles runAvg speedWind from/ knotsBaromVisibWave heightAir tempDewpointWater temp
2016-Sep-30 20:33N 40°43' W 073°59'0 0.0
2016-Sep-30 17:33N 40°43' W 073°59'0 0.0
2016-Sep-30 16:33N 40°43' W 073°59'0 0.0
2016-Sep-30 14:33N 40°43' W 073°59'0 0.0
2016-Sep-30 13:33N 40°43' W 073°59'0 0.0
2016-Sep-30 10:33N 40°43' W 073°59'0 0.0
2016-Sep-30 08:33N 40°43' W 073°59'0 0.0
2016-Sep-30 06:33N 40°43' W 073°59'7 2.4
2016-Sep-30 03:33N 40°48' W 073°53'6610.5
2016-Sep-29 21:16N 41°09' W 072°30'7 9.8
2016-Sep-29 20:32N 41°11' W 072°21'55 7.9
2016-Sep-29 13:32N 41°44' W 071°22'3 0.2
2016-Sep-28 21:33N 41°42' W 071°19'  
2016-Sep-23 03:14N 41°38' W 070°55'0 0.0
2016-Sep-23 00:31N 41°38' W 070°55'  
Track history (hours):
 
Tides and Currents Weather Stations Pressure Air Temp Water Temp Dewpoint Dewpoint Depression Visibility Wind Speed Wind Dir Waves Ship Positions

American Glory

Owner: AMERICAN CRUISE LINES INC, DELMAR, DE. More information available from US FCC via Universal Licensing System and Coast Guard Vessel Documentation Center.

Last reported at 2016-Sep-30 20:33 UTC. Time now 2016-Sep-30 22:03 UTC.
Position N 40°43' W 073°59'.

Length 54 m; draft 2.1 m.

Type: Ship. MMSI: 366858820.

Date/timePositionNaut miles runAvg speedWind from/ knotsBaromVisibWave heightAir tempDewpointWater temp
2016-Sep-30 20:33N 40°43' W 073°59'0 0.0
2016-Sep-30 17:33N 40°43' W 073°59'0 0.0
2016-Sep-30 16:33N 40°43' W 073°59'0 0.0
2016-Sep-30 14:33N 40°43' W 073°59'0 0.0
2016-Sep-30 13:33N 40°43' W 073°59'0 0.0
2016-Sep-30 10:33N 40°43' W 073°59'0 0.0
2016-Sep-30 08:33N 40°43' W 073°59'0 0.0
2016-Sep-30 06:33N 40°43' W 073°59'7 2.4
2016-Sep-30 03:33N 40°48' W 073°53'6610.5
2016-Sep-29 21:16N 41°09' W 072°30'7 9.8
2016-Sep-29 20:32N 41°11' W 072°21'55 7.9
2016-Sep-29 13:32N 41°44' W 071°22'3 0.2
2016-Sep-28 21:33N 41°42' W 071°19'  
2016-Sep-23 03:14N 41°38' W 070°55'0 0.0
2016-Sep-23 00:31N 41°38' W 070°55'  

Dump ship's entire track history